createdAt,value
2018-05-03T00:01:18.130Z,97583.79
2018-05-03T00:03:46.382Z,97583.84
2018-05-03T00:06:14.667Z,97580.47
2018-05-03T00:08:42.922Z,97581.75
2018-05-03T00:11:11.214Z,97586.13
2018-05-03T00:13:39.473Z,97588.68
2018-05-03T00:16:08.503Z,97587.48
2018-05-03T00:18:36.814Z,97598.60
2018-05-03T00:21:05.138Z,97602.02
2018-05-03T00:23:33.394Z,97600.72
2018-05-03T00:26:01.699Z,97602.45
2018-05-03T00:28:29.963Z,97603.73
2018-05-03T00:30:58.230Z,97604.64
2018-05-03T00:33:26.498Z,97605.19
2018-05-03T00:35:54.899Z,97600.53
2018-05-03T00:38:23.160Z,97595.13
2018-05-03T00:40:51.438Z,97607.05
2018-05-03T00:43:19.724Z,97609.63
2018-05-03T00:45:47.978Z,97622.95
2018-05-03T00:48:17.022Z,97622.16
2018-05-03T00:50:45.300Z,97625.20
2018-05-03T00:53:13.547Z,97622.59
2018-05-03T00:55:41.829Z,97616.66
2018-05-03T00:58:10.079Z,97622.97
2018-05-03T01:00:39.170Z,97628.59
2018-05-03T01:03:08.286Z,97627.72
2018-05-03T01:05:36.540Z,97626.52
2018-05-03T01:08:05.587Z,97618.43
2018-05-03T01:10:33.931Z,97618.84
2018-05-03T01:13:02.180Z,97612.44
2018-05-03T01:15:31.315Z,97620.54
2018-05-03T01:17:59.560Z,97620.55
2018-05-03T01:20:28.595Z,97624.86
2018-05-03T01:22:56.968Z,97631.23
2018-05-03T01:25:25.226Z,97625.70
2018-05-03T01:27:53.491Z,97630.35
2018-05-03T01:30:22.612Z,97628.33
2018-05-03T01:32:50.879Z,97632.14
2018-05-03T01:38:30.881Z,97639.02
2018-05-03T01:40:59.239Z,97641.60
2018-05-03T01:43:27.502Z,97636.91
2018-05-03T01:45:55.787Z,97639.89
2018-05-03T01:48:24.043Z,97640.69
2018-05-03T01:50:52.310Z,97648.84
2018-05-03T01:53:21.364Z,97658.69
2018-05-03T01:55:49.704Z,97659.62
2018-05-03T01:58:17.996Z,97663.11
2018-05-03T02:00:46.274Z,97662.31
2018-05-03T02:03:14.540Z,97652.51
2018-05-03T02:05:42.799Z,97657.62
2018-05-03T02:08:11.098Z,97663.17
2018-05-03T02:10:39.363Z,97669.63
2018-05-03T02:13:07.612Z,97672.20
2018-05-03T02:15:36.653Z,97665.17
2018-05-03T02:18:04.907Z,97663.91
2018-05-03T02:20:33.231Z,97665.62
2018-05-03T02:23:02.279Z,97660.94
2018-05-03T02:25:30.549Z,97660.49
2018-05-03T02:27:58.794Z,97657.91
2018-05-03T02:30:27.072Z,97658.78
2018-05-03T02:32:55.395Z,97658.84
2018-05-03T02:35:23.679Z,97652.41
2018-05-03T02:37:52.008Z,97647.72
2018-05-03T02:40:20.209Z,97640.02
2018-05-03T02:42:48.503Z,97639.59
2018-05-03T02:45:16.772Z,97640.44
2018-05-03T02:47:45.044Z,97650.68
2018-05-03T02:50:13.326Z,97636.22
2018-05-03T02:52:41.596Z,97643.03
2018-05-03T02:55:09.866Z,97646.08
2018-05-03T02:58:01.558Z,97643.94
2018-05-03T03:00:53.278Z,97642.73
2018-05-03T03:03:44.766Z,97648.27
2018-05-03T03:06:36.539Z,97654.22
2018-05-03T03:09:28.396Z,97661.06
2018-05-03T03:15:42.810Z,97671.28
2018-05-03T03:18:34.487Z,97672.98
2018-05-03T03:25:01.799Z,97666.21
2018-05-03T03:27:53.570Z,97664.94
2018-05-03T03:30:46.024Z,97663.66
2018-05-03T03:33:32.983Z,97664.53
2018-05-03T03:36:19.047Z,97654.30
2018-05-03T03:39:05.251Z,97654.34
2018-05-03T03:41:38.967Z,97653.46
2018-05-03T03:44:25.239Z,97650.92
2018-05-03T03:46:54.261Z,97662.39
2018-05-03T03:49:22.515Z,97661.55
2018-05-03T03:51:50.797Z,97657.73
2018-05-03T03:54:19.045Z,97663.67
2018-05-03T03:56:48.281Z,97664.94
2018-05-03T03:59:17.396Z,97665.38
2018-05-03T04:01:45.657Z,97663.67
2018-05-03T04:04:13.928Z,97673.44
2018-05-03T04:06:42.187Z,97678.56
2018-05-03T04:09:11.206Z,97676.41
2018-05-03T04:11:39.478Z,97682.80
2018-05-03T04:14:07.727Z,97682.80
2018-05-03T04:16:36.906Z,97685.36
2018-05-03T04:19:22.935Z,97690.44
2018-05-03T04:22:08.964Z,97697.23
2018-05-03T04:27:53.832Z,97706.60
2018-05-03T04:30:23.019Z,97715.93
2018-05-03T04:32:51.288Z,97722.31
2018-05-03T04:35:19.530Z,97721.03
2018-05-03T04:37:47.787Z,97718.49
2018-05-03T04:40:16.117Z,97725.31
2018-05-03T04:42:44.367Z,97723.61
2018-05-03T04:45:13.422Z,97733.36
2018-05-03T04:47:41.686Z,97737.20
2018-05-03T04:50:09.935Z,97739.77
2018-05-03T04:52:38.203Z,97745.24
2018-05-03T04:55:06.482Z,97743.08
2018-05-03T04:57:34.812Z,97753.67
2018-05-03T05:00:03.092Z,97756.62
2018-05-03T05:02:31.387Z,97763.38
2018-05-03T05:04:59.734Z,97773.11
2018-05-03T05:07:28.017Z,97771.70
2018-05-03T05:09:56.359Z,97778.89
2018-05-03T05:12:24.619Z,97783.49
2018-05-03T05:14:52.924Z,97784.66
2018-05-03T05:17:21.181Z,97784.12
2018-05-03T05:19:49.443Z,97789.12
2018-05-03T05:22:18.487Z,97792.03
2018-05-03T05:24:46.841Z,97792.73
2018-05-03T05:27:15.119Z,97795.16
2018-05-03T05:29:43.406Z,97795.78
2018-05-03T05:32:11.779Z,97797.64
2018-05-03T05:34:40.066Z,97799.97
2018-05-03T05:37:08.336Z,97797.23
2018-05-03T05:39:36.611Z,97802.08
2018-05-03T05:42:04.940Z,97803.33
2018-05-03T05:44:33.973Z,97811.70
2018-05-03T05:47:02.251Z,97815.14
2018-05-03T05:49:30.513Z,97821.31
2018-05-03T05:51:58.866Z,97819.89
2018-05-03T05:54:27.895Z,97827.19
2018-05-03T05:56:56.167Z,97820.09
2018-05-03T05:59:24.443Z,97824.13
2018-05-03T06:01:52.823Z,97828.06
2018-05-03T06:04:21.116Z,97837.11
2018-05-03T06:06:49.290Z,97830.00
2018-05-03T06:09:17.563Z,97831.83
2018-05-03T06:11:45.832Z,97832.97
2018-05-03T06:14:14.088Z,97833.71
2018-05-03T06:16:42.438Z,97841.97
2018-05-03T06:19:10.723Z,97844.13
2018-05-03T06:21:39.767Z,97838.70
2018-05-03T06:24:08.027Z,97844.23
2018-05-03T06:26:36.295Z,97840.69
2018-05-03T06:29:04.571Z,97845.11
2018-05-03T06:31:32.883Z,97848.91
2018-05-03T06:34:01.235Z,97858.42
2018-05-03T06:36:29.491Z,97856.60
2018-05-03T06:38:58.643Z,97857.70
2018-05-03T06:41:26.819Z,97857.69
2018-05-03T06:43:55.158Z,97860.17
2018-05-03T06:46:23.438Z,97865.75
2018-05-03T06:48:51.702Z,97873.03
2018-05-03T06:51:19.975Z,97863.63
2018-05-03T06:53:48.265Z,97869.86
2018-05-03T06:56:16.537Z,97877.15
2018-05-03T06:58:44.815Z,97883.91
2018-05-03T07:01:13.209Z,97884.09
2018-05-03T07:03:41.473Z,97893.12
2018-05-03T07:06:09.730Z,97891.25
2018-05-03T07:08:38.029Z,97902.05
2018-05-03T07:11:06.294Z,97894.70
2018-05-03T07:13:34.595Z,97905.37
2018-05-03T07:16:02.879Z,97906.72
2018-05-03T07:18:31.154Z,97909.30
2018-05-03T07:20:59.440Z,97909.22
2018-05-03T07:23:27.725Z,97914.27
2018-05-03T07:25:56.001Z,97911.66
2018-05-03T07:28:24.278Z,97917.30
2018-05-03T07:30:52.535Z,97919.94
2018-05-03T07:33:20.803Z,97914.89
2018-05-03T07:35:49.187Z,97923.08
2018-05-03T07:38:17.468Z,97920.87
2018-05-03T07:40:45.772Z,97928.58
2018-05-03T07:43:14.011Z,97939.27
2018-05-03T07:45:42.322Z,97935.84
2018-05-03T07:48:10.590Z,97942.33
2018-05-03T07:50:38.872Z,97952.31
2018-05-03T07:53:07.135Z,97952.73
2018-05-03T07:55:35.396Z,97948.08
2018-05-03T07:58:03.676Z,97948.32
2018-05-03T08:00:31.934Z,97948.91
2018-05-03T08:03:00.219Z,97953.09
2018-05-03T08:05:30.037Z,97954.61
2018-05-03T08:07:58.315Z,97962.62
2018-05-03T08:10:26.572Z,97969.88
2018-05-03T08:12:54.853Z,97967.47
2018-05-03T08:15:23.129Z,97974.75
2018-05-03T08:17:51.424Z,97969.01
2018-05-03T08:20:19.692Z,97979.13
2018-05-03T08:22:47.970Z,97981.18
2018-05-03T08:25:16.235Z,97983.06
2018-05-03T08:27:44.503Z,97979.46
2018-05-03T08:30:12.782Z,97986.95
2018-05-03T08:32:41.046Z,97986.84
2018-05-03T08:35:09.322Z,97988.15
2018-05-03T08:37:37.586Z,97991.29
2018-05-03T08:40:06.710Z,97987.31
2018-05-03T08:42:34.981Z,97993.59
2018-05-03T08:45:03.296Z,97994.14
2018-05-03T08:47:31.741Z,97996.82
2018-05-03T08:50:00.011Z,98003.87
2018-05-03T08:52:28.280Z,97995.25
2018-05-03T08:54:56.671Z,97994.36
2018-05-03T08:57:24.939Z,98000.92
2018-05-03T08:59:53.230Z,98003.70
2018-05-03T09:02:21.512Z,98005.48
2018-05-03T09:04:49.798Z,98007.67
2018-05-03T09:07:18.164Z,98007.03
2018-05-03T09:09:46.416Z,98003.92
2018-05-03T09:12:14.713Z,98012.52
2018-05-03T09:14:42.966Z,98003.84
2018-05-03T09:17:11.253Z,98014.72
2018-05-03T09:19:39.514Z,98013.47
2018-05-03T09:22:08.575Z,98019.60
2018-05-03T09:24:36.872Z,98011.45
2018-05-03T09:27:05.913Z,98016.98
2018-05-03T09:29:34.279Z,98011.69
2018-05-03T09:32:02.542Z,98009.83
2018-05-03T09:34:30.814Z,98006.76
2018-05-03T09:36:59.090Z,98017.13
2018-05-03T09:39:27.392Z,98017.81
2018-05-03T09:41:55.666Z,98021.02
2018-05-03T09:44:23.968Z,98029.46
2018-05-03T09:46:52.233Z,98033.47
2018-05-03T09:49:20.516Z,98044.19
2018-05-03T09:51:48.779Z,98035.73
2018-05-03T09:54:17.042Z,98036.06
2018-05-03T09:56:45.315Z,98031.60
2018-05-03T09:59:13.584Z,98041.73
2018-05-03T10:01:41.864Z,98038.17
2018-05-03T10:04:10.125Z,98043.05
2018-05-03T10:06:39.170Z,98032.23
2018-05-03T10:09:07.433Z,98032.38
2018-05-03T10:11:36.543Z,98028.39
2018-05-03T10:14:04.816Z,98021.80
2018-05-03T10:16:33.171Z,98020.41
2018-05-03T10:19:01.472Z,98023.26
2018-05-03T10:21:29.727Z,98026.64
2018-05-03T10:23:57.979Z,98023.80
2018-05-03T10:26:26.267Z,98024.19
2018-05-03T10:28:54.530Z,98017.80
2018-05-03T10:31:23.571Z,98027.28
2018-05-03T10:33:51.839Z,98025.28
2018-05-03T10:36:20.189Z,98023.28
2018-05-03T10:38:48.407Z,98034.66
2018-05-03T10:41:16.680Z,98035.02
2018-05-03T10:43:44.951Z,98037.57
2018-05-03T10:46:13.215Z,98036.56
2018-05-03T10:48:41.595Z,98023.86
2018-05-03T10:51:09.787Z,98024.39
2018-05-03T10:53:38.052Z,98024.02
2018-05-03T10:56:06.335Z,98019.45
2018-05-03T10:58:34.641Z,98028.63
2018-05-03T11:01:02.977Z,98031.36
2018-05-03T11:03:31.240Z,98028.26
2018-05-03T11:05:59.519Z,98032.11
2018-05-03T11:08:27.787Z,98028.45
2018-05-03T11:10:56.063Z,98026.84
2018-05-03T11:13:24.335Z,98028.70
2018-05-03T11:15:52.603Z,98021.88
2018-05-03T11:18:20.898Z,98031.62
2018-05-03T11:20:49.175Z,98031.30
2018-05-03T11:23:17.443Z,98028.53
2018-05-03T11:25:45.727Z,98032.47
2018-05-03T11:28:14.585Z,98026.73
2018-05-03T11:30:43.634Z,98028.59
2018-05-03T11:33:11.898Z,98023.12
2018-05-03T11:35:40.162Z,98026.48
2018-05-03T11:38:08.449Z,98026.74
2018-05-03T11:40:36.715Z,98021.40
2018-05-03T11:43:05.055Z,98031.70
2018-05-03T11:45:35.111Z,98031.56
2018-05-03T11:48:03.376Z,98030.21
2018-05-03T11:50:31.679Z,98040.48
2018-05-03T11:52:59.939Z,98037.32
2018-05-03T11:55:28.221Z,98041.59
2018-05-03T11:57:56.494Z,98052.30
2018-05-03T12:00:24.770Z,98048.63
2018-05-03T12:02:53.074Z,98050.53
2018-05-03T12:05:21.415Z,98052.66
2018-05-03T12:07:49.706Z,98043.61
2018-05-03T12:10:17.972Z,98045.82
2018-05-03T12:12:46.252Z,98049.73
2018-05-03T12:15:14.503Z,98053.23
2018-05-03T12:17:42.783Z,98050.39
2018-05-03T12:20:11.075Z,98060.11
2018-05-03T12:22:39.338Z,98058.26
2018-05-03T12:25:07.629Z,98045.77
2018-05-03T12:27:35.894Z,98051.34
2018-05-03T12:30:04.165Z,98044.38
2018-05-03T12:32:32.451Z,98035.52
2018-05-03T12:35:00.757Z,98046.92
2018-05-03T12:37:29.016Z,98044.53
2018-05-03T12:39:57.314Z,98048.36
2018-05-03T12:42:25.590Z,98045.64
2018-05-03T12:44:53.856Z,98039.91
2018-05-03T12:47:22.130Z,98035.50
2018-05-03T12:49:50.440Z,98039.69
2018-05-03T12:52:18.710Z,98039.04
2018-05-03T12:54:46.978Z,98037.25
2018-05-03T12:57:15.250Z,98044.91
2018-05-03T12:59:43.527Z,98046.89
2018-05-03T13:02:11.855Z,98046.36
2018-05-03T13:04:40.903Z,98037.48
2018-05-03T13:07:09.188Z,98040.14
2018-05-03T13:09:37.521Z,98040.81
2018-05-03T13:12:05.904Z,98036.70
2018-05-03T13:14:34.198Z,98040.59
2018-05-03T13:17:02.493Z,98036.95
2018-05-03T13:19:30.838Z,98039.94
2018-05-03T13:21:59.120Z,98040.72
2018-05-03T13:24:27.383Z,98039.50
2018-05-03T13:26:55.650Z,98047.30
2018-05-03T13:29:23.985Z,98037.36
2018-05-03T13:31:52.316Z,98039.56
2018-05-03T13:34:20.601Z,98031.02
2018-05-03T13:36:48.995Z,98032.32
2018-05-03T13:39:17.350Z,98031.67
2018-05-03T13:41:45.730Z,98032.83
2018-05-03T13:44:14.008Z,98030.89
2018-05-03T13:46:42.289Z,98033.66
2018-05-03T13:49:10.596Z,98034.70
2018-05-03T13:51:38.858Z,98037.31
2018-05-03T13:54:07.132Z,98039.21
2018-05-03T13:56:35.398Z,98044.94
2018-05-03T13:59:03.683Z,98049.42
2018-05-03T14:01:32.039Z,98045.57
2018-05-03T14:04:00.334Z,98039.39
2018-05-03T14:06:28.629Z,98040.56
2018-05-03T14:08:56.968Z,98037.78
2018-05-03T14:11:25.238Z,98032.22
2018-05-03T14:13:53.526Z,98041.20
2018-05-03T14:16:21.830Z,98042.49
2018-05-03T14:18:50.086Z,98043.34
2018-05-03T14:21:18.390Z,98046.25
2018-05-03T14:23:46.659Z,98055.97
2018-05-03T14:26:14.931Z,98052.02
2018-05-03T14:28:43.297Z,98051.66
2018-05-03T14:31:11.563Z,98066.45
2018-05-03T14:33:39.849Z,98059.57
2018-05-03T14:36:08.115Z,98059.83
2018-05-03T14:38:36.494Z,98056.96
2018-05-03T14:41:04.750Z,98055.63
2018-05-03T14:43:33.048Z,98059.31
2018-05-03T14:46:01.351Z,98058.73
2018-05-03T14:48:29.614Z,98054.88
2018-05-03T14:50:57.978Z,98058.17
2018-05-03T14:53:26.240Z,98053.83
2018-05-03T14:55:54.519Z,98057.23
2018-05-03T14:58:23.591Z,98057.66
2018-05-03T15:00:52.738Z,98057.11
2018-05-03T15:03:21.004Z,98058.83
2018-05-03T15:05:49.269Z,98063.73
2018-05-03T15:08:17.545Z,98068.81
2018-05-03T15:10:45.817Z,98069.25
2018-05-03T15:13:14.084Z,98068.62
2018-05-03T15:15:42.356Z,98067.02
2018-05-03T15:18:11.480Z,98069.95
2018-05-03T15:20:40.465Z,98077.05
2018-05-03T15:23:08.732Z,98078.27
2018-05-03T15:25:37.011Z,98085.92
2018-05-03T15:28:05.307Z,98076.07
2018-05-03T15:30:33.623Z,98079.83
2018-05-03T15:33:01.889Z,98092.76
2018-05-03T15:35:30.162Z,98090.07
2018-05-03T15:37:58.448Z,98091.17
2018-05-03T15:40:29.854Z,98098.72
2018-05-03T15:42:58.134Z,98101.36
2018-05-03T15:45:26.408Z,98098.19
2018-05-03T15:47:54.675Z,98105.42
2018-05-03T15:50:22.957Z,98110.63
2018-05-03T15:52:51.231Z,98112.36
2018-05-03T15:55:19.524Z,98116.33
2018-05-03T15:57:47.887Z,98118.62
2018-05-03T16:00:16.171Z,98121.62
2018-05-03T16:02:44.451Z,98124.38
2018-05-03T16:05:12.723Z,98121.83
2018-05-03T16:07:41.168Z,98118.17
2018-05-03T16:10:09.384Z,98121.62
2018-05-03T16:12:37.662Z,98118.33
2018-05-03T16:15:05.921Z,98118.25
2018-05-03T16:17:34.205Z,98116.30
2018-05-03T16:20:02.518Z,98120.45
2018-05-03T16:22:30.776Z,98128.92
2018-05-03T16:24:59.135Z,98128.55
2018-05-03T16:27:27.435Z,98129.94
2018-05-03T16:29:55.683Z,98121.11
2018-05-03T16:32:23.962Z,98130.08
2018-05-03T16:34:52.234Z,98129.28
2018-05-03T16:37:20.532Z,98129.66
2018-05-03T16:39:48.892Z,98135.69
2018-05-03T16:42:17.291Z,98138.02
2018-05-03T16:44:45.649Z,98148.63
2018-05-03T16:47:13.927Z,98145.39
2018-05-03T16:49:42.183Z,98144.32
2018-05-03T16:52:10.464Z,98143.34
2018-05-03T16:54:38.788Z,98147.50
2018-05-03T16:57:07.793Z,98144.35
2018-05-03T16:59:36.048Z,98144.47
2018-05-03T17:02:04.401Z,98142.45
2018-05-03T17:04:32.823Z,98143.52
2018-05-03T17:07:01.135Z,98145.18
2018-05-03T17:09:29.432Z,98141.19
2018-05-03T17:11:57.696Z,98147.33
2018-05-03T17:14:25.980Z,98151.75
2018-05-03T17:16:54.265Z,98153.91
2018-05-03T17:19:22.551Z,98152.23
2018-05-03T17:21:50.819Z,98153.88
2018-05-03T17:24:19.080Z,98157.82
2018-05-03T17:26:47.390Z,98165.33
2018-05-03T17:29:15.646Z,98165.13
2018-05-03T17:31:43.919Z,98170.75
2018-05-03T17:34:12.188Z,98169.05
2018-05-03T17:36:40.474Z,98166.27
2018-05-03T17:39:08.838Z,98175.61
2018-05-03T17:41:37.036Z,98184.81
2018-05-03T17:44:05.319Z,98188.02
2018-05-03T17:46:33.587Z,98187.13
2018-05-03T17:49:01.931Z,98197.88
2018-05-03T17:51:30.957Z,98199.73
2018-05-03T17:53:59.222Z,98202.05
2018-05-03T17:56:27.504Z,98201.06
2018-05-03T17:58:55.766Z,98209.94
2018-05-03T18:01:24.040Z,98213.19
2018-05-03T18:03:52.295Z,98218.02
2018-05-03T18:06:21.328Z,98228.16
2018-05-03T18:08:49.603Z,98222.31
2018-05-03T18:11:17.872Z,98221.58
2018-05-03T18:13:46.171Z,98230.41
2018-05-03T18:16:14.538Z,98235.52
2018-05-03T18:18:43.535Z,98238.72
2018-05-03T18:21:11.819Z,98242.77
2018-05-03T18:23:40.079Z,98244.86
2018-05-03T18:26:08.445Z,98250.83
2018-05-03T18:28:36.631Z,98260.15
2018-05-03T18:31:05.135Z,98259.99
2018-05-03T18:33:33.579Z,98267.47
2018-05-03T18:36:02.611Z,98266.58
2018-05-03T18:38:31.744Z,98265.94
2018-05-03T18:41:00.961Z,98270.72
2018-05-03T18:43:30.404Z,98274.14
2018-05-03T18:46:00.195Z,98272.98
2018-05-03T18:48:31.080Z,98275.59
2018-05-03T18:51:01.006Z,98281.79
2018-05-03T18:53:30.865Z,98284.73
2018-05-03T18:56:01.341Z,98299.84
2018-05-03T18:58:30.669Z,98307.59
2018-05-03T19:00:59.895Z,98309.02
2018-05-03T19:03:30.018Z,98309.56
2018-05-03T19:05:59.388Z,98314.34
2018-05-03T19:08:28.586Z,98314.55
2018-05-03T19:10:57.860Z,98320.61
2018-05-03T19:13:27.211Z,98323.27
2018-05-03T19:15:57.325Z,98325.13
2018-05-03T19:18:26.609Z,98326.94
2018-05-03T19:20:56.217Z,98333.92
2018-05-03T19:23:25.494Z,98330.87
2018-05-03T19:25:54.844Z,98339.67
2018-05-03T19:28:24.900Z,98346.89
2018-05-03T19:30:54.284Z,98347.28
2018-05-03T19:33:23.695Z,98345.63
2018-05-03T19:35:53.120Z,98353.79
2018-05-03T19:38:22.562Z,98355.94
2018-05-03T19:40:52.896Z,98359.34
2018-05-03T19:43:22.272Z,98369.24
2018-05-03T19:45:51.661Z,98379.53
2018-05-03T19:48:21.065Z,98377.92
2018-05-03T19:50:50.371Z,98383.41
2018-05-03T19:53:19.765Z,98387.75
2018-05-03T19:55:49.101Z,98388.14
2018-05-03T19:58:19.431Z,98390.83
2018-05-03T20:00:50.127Z,98394.66
2018-05-03T20:03:19.806Z,98388.80
2018-05-03T20:05:49.124Z,98402.54
2018-05-03T20:08:18.399Z,98407.71
2018-05-03T20:10:48.561Z,98403.81
2018-05-03T20:13:17.863Z,98408.15
2018-05-03T20:15:47.265Z,98409.91
2018-05-03T20:18:17.153Z,98402.20
2018-05-03T20:20:47.835Z,98404.27
2018-05-03T20:23:18.051Z,98405.21
2018-05-03T20:25:47.438Z,98409.95
2018-05-03T20:28:17.165Z,98404.84
2018-05-03T20:30:47.858Z,98412.48
2018-05-03T20:33:17.192Z,98427.05
2018-05-03T20:35:47.771Z,98433.41
2018-05-03T20:38:17.146Z,98433.84
2018-05-03T20:40:47.670Z,98435.10
2018-05-03T20:43:17.631Z,98431.30
2018-05-03T20:45:47.789Z,98429.67
2018-05-03T20:48:17.491Z,98421.95
2018-05-03T20:50:47.388Z,98429.23
2018-05-03T20:53:16.256Z,98436.52
2018-05-03T20:55:46.645Z,98436.55
2018-05-03T20:58:16.501Z,98431.42
2018-05-03T21:00:46.249Z,98432.32
2018-05-03T21:03:14.705Z,98432.33
2018-05-03T21:05:43.943Z,98439.62
2018-05-03T21:08:12.304Z,98440.09
2018-05-03T21:10:41.342Z,98443.50
2018-05-03T21:13:09.677Z,98437.53
2018-05-03T21:15:38.099Z,98434.94
2018-05-03T21:18:06.414Z,98434.96
2018-05-03T21:20:34.768Z,98445.67
2018-05-03T21:23:03.152Z,98449.52
2018-05-03T21:25:31.421Z,98444.81
2018-05-03T21:27:59.750Z,98446.97
2018-05-03T21:30:28.089Z,98443.12
2018-05-03T21:32:56.388Z,98448.67
2018-05-03T21:35:24.678Z,98448.66
2018-05-03T21:37:53.044Z,98445.25
2018-05-03T21:40:21.325Z,98443.55
2018-05-03T21:42:49.632Z,98447.39
2018-05-03T21:45:17.910Z,98453.81
2018-05-03T21:47:46.255Z,98440.98
2018-05-03T21:50:14.572Z,98450.38
2018-05-03T21:52:42.872Z,98450.40
2018-05-03T21:55:11.241Z,98455.09
2018-05-03T21:57:39.529Z,98452.51
2018-05-03T22:00:07.800Z,98455.92
2018-05-03T22:02:36.087Z,98461.07
2018-05-03T22:05:04.395Z,98460.20
2018-05-03T22:07:32.677Z,98465.36
2018-05-03T22:10:00.959Z,98461.06
2018-05-03T22:12:29.230Z,98455.91
2018-05-03T22:14:57.536Z,98459.78
2018-05-03T22:17:25.840Z,98463.16
2018-05-03T22:19:54.200Z,98467.42
2018-05-03T22:22:22.498Z,98463.14
2018-05-03T22:24:50.826Z,98465.67
2018-05-03T22:27:19.236Z,98464.37
2018-05-03T22:29:47.539Z,98459.63
2018-05-03T22:32:15.802Z,98468.08
2018-05-03T22:34:44.076Z,98466.38
2018-05-03T22:37:12.342Z,98459.58
2018-05-03T22:39:40.620Z,98459.10
2018-05-03T22:42:08.936Z,98464.59
2018-05-03T22:44:37.190Z,98455.66
2018-05-03T22:47:05.511Z,98461.98
2018-05-03T22:49:33.803Z,98461.53
2018-05-03T22:52:02.093Z,98462.90
2018-05-03T22:54:30.377Z,98463.79
2018-05-03T22:56:58.682Z,98469.39
2018-05-03T22:59:26.981Z,98462.16
2018-05-03T23:01:55.299Z,98462.09
2018-05-03T23:04:23.617Z,98454.83
2018-05-03T23:06:51.852Z,98451.81
2018-05-03T23:09:20.193Z,98450.88
2018-05-03T23:11:49.235Z,98454.22
2018-05-03T23:14:17.529Z,98453.42
2018-05-03T23:16:45.873Z,98448.30
2018-05-03T23:19:14.163Z,98447.81
2018-05-03T23:21:42.464Z,98442.61
2018-05-03T23:24:10.737Z,98439.59
2018-05-03T23:26:39.077Z,98441.30
2018-05-03T23:29:07.405Z,98439.98
2018-05-03T23:31:35.699Z,98441.19
2018-05-03T23:34:04.023Z,98444.56
2018-05-03T23:36:32.370Z,98438.13
2018-05-03T23:39:00.734Z,98436.84
2018-05-03T23:41:29.034Z,98433.35
2018-05-03T23:43:57.341Z,98435.03
2018-05-03T23:46:25.603Z,98438.89
2018-05-03T23:48:53.961Z,98435.88
2018-05-03T23:51:22.976Z,98432.81
2018-05-03T23:53:51.265Z,98440.47
2018-05-03T23:56:19.554Z,98441.16
2018-05-03T23:58:47.884Z,98434.38
